Stations météo

réclame
Mon MeteoGroup
Concordia Sagittaria, Italie (16107): Température de l'air & dewpoint: 07.12.2017 00:00:00 - 13.12.2017 00:00:00 (CET)Concordia Sagittaria, Italie (16107): Vitesse du vent: 07.12.2017 00:00:00 - 13.12.2017 00:00:00 (CET)Concordia Sagittaria, Italie (16107): Direction du vent: 07.12.2017 00:00:00 - 13.12.2017 00:00:00 (CET)Concordia Sagittaria, Italie (16107): reduced air pressure: 07.12.2017 00:00:00 - 13.12.2017 00:00:00 (CET)Concordia Sagittaria, Italie (16107): Quantités de précipitations: 07.12.2017 00:00:00 - 13.12.2017 00:00:00 (CET)
Date & Time tt [°C] td [°C] ff [km/h] ff [knt] dd ppp [hPa] rr [mm]
13.12.2017 00:00:00 - - - - - - -
12.12.2017 23:00:00 7,0 5,5 0 0 N 1018,6 -
12.12.2017 22:00:00 7,3 5,7 0 0 N 1017,9 -
12.12.2017 21:00:00 7,6 6,0 0 0 N 1018,0 -
12.12.2017 20:00:00 8,2 6,6 0 0 N 1017,3 -
12.12.2017 19:00:00 8,5 6,9 0 0 N 1017,1 0,0
12.12.2017 18:00:00 8,9 7,3 0 0 N 1016,7 -
12.12.2017 17:00:00 9,6 8,0 0 0 N 1016,0 -
12.12.2017 16:00:00 11,1 9,0 0 0 N 1015,6 -
12.12.2017 15:00:00 12,2 9,5 0 0 N 1015,0 -
12.12.2017 14:00:00 12,8 10,0 8 4 SE 1014,4 -
12.12.2017 13:00:00 13,4 9,2 8 4 S 1014,2 0,0
12.12.2017 12:00:00 13,3 11,0 4 2 S 1013,7 -
12.12.2017 11:00:00 12,9 10,4 5 3 SSE 1013,6 -
12.12.2017 10:00:00 12,2 10,6 8 4 SSE 1012,7 -
12.12.2017 09:00:00 12,1 10,5 8 4 S 1011,4 -
12.12.2017 08:00:00 11,9 10,3 8 4 S 1009,9 -
12.12.2017 07:00:00 11,9 10,3 5 3 SSE 1008,8 0,0
12.12.2017 06:00:00 12,4 10,8 13 7 SSE 1007,5 -
12.12.2017 05:00:00 12,7 11,1 22 12 SSW 1006,8 -
12.12.2017 04:00:00 14,0 12,2 37 20 SE 1004,9 -
12.12.2017 03:00:00 14,2 12,0 37 20 SE 1004,3 -
12.12.2017 02:00:00 15,6 11,5 41 22 S 1003,9 -
12.12.2017 01:00:00 15,1 11,6 35 19 ESE 1003,2 0,0
12.12.2017 00:00:00 15,4 11,2 42 23 SE 1002,8 -
11.12.2017 23:00:00 15,2 11,2 35 19 SSE 1003,0 -
11.12.2017 22:00:00 15,0 11,4 48 26 SE 1003,0 -
11.12.2017 21:00:00 14,3 11,4 41 22 SE 1003,0 -
11.12.2017 20:00:00 13,6 12,0 29 16 SSE 1003,6 -
11.12.2017 19:00:00 13,2 11,6 26 14 SE 1004,1 0,0
11.12.2017 18:00:00 13,9 11,7 31 17 SSE 1003,4 -
11.12.2017 17:00:00 13,2 11,7 24 13 SSE 1003,3 -
11.12.2017 16:00:00 6,9 5,5 5 3 NW 1003,6 -
11.12.2017 15:00:00 6,3 4,9 5 3 N 1004,2 -
11.12.2017 14:00:00 5,4 4,0 9 5 NNW 1004,5 -
11.12.2017 13:00:00 5,0 3,6 5 3 N 1004,8 0,0
11.12.2017 12:00:00 4,7 3,3 8 4 N 1005,4 -
11.12.2017 11:00:00 4,2 2,8 4 2 NNW 1006,2 -
11.12.2017 10:00:00 3,4 2,1 5 3 NNW 1006,6 -
11.12.2017 09:00:00 2,9 1,6 2 1 ENE 1006,5 -
11.12.2017 08:00:00 2,6 1,3 8 4 NNW 1006,4 -
11.12.2017 07:00:00 2,5 1,2 8 4 NNW 1006,5 0,0
11.12.2017 06:00:00 2,1 0,8 5 3 NNW 1006,6 -
11.12.2017 05:00:00 2,0 0,7 5 3 NW 1007,0 -
11.12.2017 04:00:00 1,8 0,5 4 2 N 1007,0 -
11.12.2017 03:00:00 1,9 0,6 5 3 NNW 1007,7 -
11.12.2017 02:00:00 1,7 0,4 8 4 N 1008,3 -
11.12.2017 01:00:00 1,4 0,1 11 6 WNW 1008,8 0,0
11.12.2017 00:00:00 1,3 0,0 9 5 NNW 1009,4 -
10.12.2017 23:00:00 0,9 -0,4 13 7 N 1010,1 -
10.12.2017 22:00:00 0,6 -0,7 15 8 N 1010,8 -
10.12.2017 21:00:00 0,4 -0,9 15 8 N 1011,5 -
10.12.2017 20:00:00 0,2 -1,3 8 4 NNE 1012,4 -
10.12.2017 19:00:00 0,2 -1,3 8 4 N 1013,0 0,0
10.12.2017 18:00:00 0,5 -1,0 8 4 N 1013,2 -
10.12.2017 17:00:00 1,2 -0,3 4 2 NNW 1013,8 -
10.12.2017 16:00:00 1,5 -0,5 5 3 NW 1014,3 -
10.12.2017 15:00:00 1,1 -0,7 8 4 WNW 1014,4 -
10.12.2017 14:00:00 1,0 -1,0 4 2 NNW 1015,8 -
10.12.2017 13:00:00 0,8 -1,1 5 3 NW 1016,9 0,0
10.12.2017 12:00:00 0,8 -1,1 2 1 NE 1017,9 -
10.12.2017 11:00:00 0,3 -1,5 0 0 N 1019,1 -
10.12.2017 10:00:00 -0,2 -2,8 2 1 WSW 1019,6 -
10.12.2017 09:00:00 -0,6 -2,1 2 1 N 1019,5 -
10.12.2017 08:00:00 -2,1 -3,5 5 3 N 1019,8 -
10.12.2017 07:00:00 -1,8 -3,9 5 3 N 1019,8 0,0
10.12.2017 06:00:00 -1,5 -2,9 5 3 N 1019,8 -
10.12.2017 05:00:00 -1,2 -2,7 8 4 NNW 1019,8 -
10.12.2017 04:00:00 -1,3 -2,8 9 5 N 1020,5 -
10.12.2017 03:00:00 -1,7 -3,1 9 5 NNE 1020,7 -
10.12.2017 02:00:00 -1,7 -3,1 5 3 N 1021,0 -
10.12.2017 01:00:00 -2,4 -3,8 4 2 NNE 1021,1 0,0
10.12.2017 00:00:00 -1,3 -2,8 0 0 N 1021,1 -
09.12.2017 23:00:00 -1,6 -3,0 0 0 N 1020,6 -
09.12.2017 22:00:00 -0,7 -2,2 5 3 N 1020,4 -
09.12.2017 21:00:00 -0,7 -2,2 0 0 N 1020,1 -
09.12.2017 20:00:00 0,1 -1,4 0 0 N 1019,4 -
09.12.2017 19:00:00 1,4 -0,1 4 2 SW 1019,0 0,0
09.12.2017 18:00:00 2,0 0,2 0 0 N 1018,6 -
09.12.2017 17:00:00 4,1 0,0 4 2 W 1017,9 -
09.12.2017 16:00:00 7,2 1,0 5 3 SSW 1017,5 -
09.12.2017 15:00:00 7,8 1,1 5 3 WSW 1016,7 -
09.12.2017 14:00:00 7,8 1,3 9 5 WSW 1016,1 -
09.12.2017 13:00:00 6,7 1,3 8 4 WSW 1015,9 0,0
09.12.2017 12:00:00 6,0 2,4 5 3 NW 1016,1 -
09.12.2017 11:00:00 4,6 3,1 11 6 NW 1016,3 -
09.12.2017 10:00:00 3,3 1,8 15 8 NW 1016,0 -
09.12.2017 09:00:00 3,3 1,8 9 5 WNW 1015,2 -
09.12.2017 08:00:00 3,2 1,7 28 15 ENE 1014,1 -
09.12.2017 07:00:00 3,3 1,8 43 23 ENE 1014,0 0,0
09.12.2017 06:00:00 3,3 1,8 21 11 ENE 1012,9 -
09.12.2017 05:00:00 3,5 2,0 26 14 NNE 1012,5 -
09.12.2017 04:00:00 3,8 2,3 24 13 NNE 1012,6 -
09.12.2017 03:00:00 5,0 3,5 31 17 NNE 1012,2 -
09.12.2017 02:00:00 5,9 4,4 16 9 N 1011,0 -
09.12.2017 01:00:00 5,5 4,1 21 11 NW 1010,8 0,0
09.12.2017 00:00:00 5,6 4,2 5 3 WNW 1011,1 -
08.12.2017 23:00:00 5,3 3,9 4 2 NW 1010,6 -
08.12.2017 22:00:00 5,3 3,9 0 0 N 1011,3 -
08.12.2017 21:00:00 5,1 3,7 4 2 NW 1012,0 -
08.12.2017 20:00:00 5,1 3,7 0 0 N 1012,7 -
08.12.2017 19:00:00 5,1 3,7 4 2 NW 1013,3 0,0
08.12.2017 18:00:00 5,0 3,6 4 2 WNW 1014,1 -
08.12.2017 17:00:00 5,1 3,7 4 2 WNW 1014,8 -
08.12.2017 16:00:00 5,2 3,8 5 3 NW 1015,8 -
08.12.2017 15:00:00 5,0 3,6 4 2 N 1016,5 -
08.12.2017 14:00:00 4,8 3,3 4 2 NNW 1017,6 -
08.12.2017 13:00:00 4,4 2,9 0 0 N 1019,1 0,0
08.12.2017 12:00:00 4,2 2,7 2 1 NW 1020,6 -
08.12.2017 11:00:00 3,9 2,4 2 1 N 1022,0 -
08.12.2017 10:00:00 3,4 1,9 5 3 NW 1022,6 -
08.12.2017 09:00:00 3,1 1,6 0 0 N 1023,2 -
08.12.2017 08:00:00 2,9 1,4 0 0 N 1023,8 -
08.12.2017 07:00:00 2,6 1,1 0 0 N 1024,5 0,0
08.12.2017 06:00:00 2,6 1,1 0 0 N 1025,4 -
08.12.2017 05:00:00 2,7 1,2 4 2 W 1026,1 -
08.12.2017 04:00:00 2,5 1,0 4 2 WNW 1027,4 -
08.12.2017 03:00:00 2,2 0,7 0 0 N 1027,9 -
08.12.2017 02:00:00 2,6 1,1 0 0 N 1028,8 -
08.12.2017 01:00:00 2,0 0,5 2 1 N 1029,4 0,0
08.12.2017 00:00:00 1,9 0,4 4 2 NNW 1030,2 -
07.12.2017 23:00:00 2,0 0,5 0 0 N 1031,0 -
07.12.2017 22:00:00 1,4 -0,1 0 0 N 1031,6 -
07.12.2017 21:00:00 1,7 0,2 5 3 WNW 1031,9 -
07.12.2017 20:00:00 1,2 -0,3 0 0 N 1032,5 -
07.12.2017 19:00:00 0,8 -0,7 0 0 N 1032,7 0,0
07.12.2017 18:00:00 2,3 0,8 0 0 N 1032,9 -
07.12.2017 17:00:00 4,2 2,5 4 2 SSE 1033,1 -
07.12.2017 16:00:00 7,2 3,8 5 3 SSE 1032,9 -
07.12.2017 15:00:00 9,2 4,0 2 1 S 1033,0 -
07.12.2017 14:00:00 8,1 4,1 5 3 WSW 1033,4 -
07.12.2017 13:00:00 7,3 4,6 2 1 W 1034,1 0,0
07.12.2017 12:00:00 5,9 4,4 4 2 WSW 1035,0 -
07.12.2017 11:00:00 4,7 3,3 4 2 WSW 1035,7 -
07.12.2017 10:00:00 2,0 0,7 0 0 N 1036,0 -
07.12.2017 09:00:00 -0,5 -2,0 4 2 WSW 1035,8 -
07.12.2017 08:00:00 -1,3 -2,8 4 2 WSW 1035,7 -
07.12.2017 07:00:00 -1,3 -2,8 4 2 W 1035,7 0,0
07.12.2017 06:00:00 0,1 -1,4 4 2 NW 1035,6 -
07.12.2017 05:00:00 -0,7 -2,2 4 2 WNW 1035,8 -
07.12.2017 04:00:00 -0,3 -1,8 2 1 W 1036,1 -
07.12.2017 03:00:00 -1,0 -2,5 4 2 NW 1036,4 -
07.12.2017 02:00:00 -0,2 -1,7 2 1 NW 1036,4 -
07.12.2017 01:00:00 0,3 -1,2 4 2 NW 1036,7 0,0
07.12.2017 00:00:00 0,0 -1,5 0 0 N 1037,1 -

tt = Température de l'air
td = dewpoint
ff = Vitesse du vent
dd = Direction du vent
ppp = reduced air pressure
rr = Quantités de précipitations

stations d'obs. à proximité